Offutt Air Force Base
KOFF : now visible

Airfield :











YOU CAN JOIN US ON...

 
LOGIN :

Register | Disclaimer

   EN    FR    IT 

 









Legend :    VFR   Marginal VFR   IFR   Intensive IFR   Very Intensive IFR
Visi :
Ceiling :
>= 8 km
>= 3000ft
5 to 8 km
1000 to 3000 ft
1500m to 5 km
500 to 1000 ft
800 to 1500m
200 to 500 ft
< 800m
< 200 ft
Symbols :   Thunderstorms  Fog  Heavy snow  Heavy precipitations  Wind > 20 kt







- Airport Elevation : 1052 ft


KOFF - Offutt Air Force Base

CURRENT METAR :
  • 201656Z 30007KT 10SM FEW190 33/22 A2985 RMK AO2A SLP083 RVRNO $

EXPIRED METARs :
  • 201556Z 20009G16KT 10SM CLR 32/22 A2983 RMK AO2A SLP076 RVRNO $
  • 201456Z 18010KT 10SM CLR 30/22 A2979 RMK AO2A SLP063 RVRNO $

TAF TAF KOFF
Valid from the 20 at 10:00 until the 21 at 16:00 UTC


201000Z 2010/2116 17009KT 9999 SKC QNH2981INS
BECMG 2013/2014 18010G15KT 9999 SCT250 QNH2980INS
BECMG 2023/2024 30005KT 9999 BKN040 OVC100 QNH2990INS
BECMG 2105/2106 04012G18KT 4800 -TSRA OVC035CB QNH2990INS TX35/2020Z TN27/2010Z
KZMP FIR / North America



MET'MAP, your aeronautical weather chart ! - Copyright ORBIFLY December 2007 - Disclaimer

ORBIFLY MET'MAP TEAM :

Programming & Development : Alexandra Zaïnal
Concept & Development : Baudouin d'Aumeries
Co-Development & Prog : Marc-Olivier Méhu
Technical & hardware support : Manuel Goepfert

Contact : metmap@orbifly.com




SOURCES & CREDITS :

   NOAA       Earth
Advisory